Time;durP1;ratioP1;P1;durP2;ratioP2;P2;SDS_P1;SDS_P2;PMS_P1;PMS_P2;Temp;Humidity;BMP_temperature;BMP_pressure;BME280_temperature;BME280_humidity;BME280_pressure;Samples;Min_cycle;Max_cycle;Signal;HPM_P1;HPM_P2
2024/02/21 00:00:56;;;;;;;6.53;3.15;;;;;;;2.72;95.70;96893.81;2090025;28;20049;-56
2024/02/21 00:01:57;;;;;;;11.65;3.92;;;;;;;2.74;95.52;96891.25;2089932;28;20053;-56
2024/02/21 00:02:59;;;;;;;9.38;2.95;;;;;;;2.75;95.33;96895.50;2090313;28;20041;-57
2024/02/21 00:04:00;;;;;;;10.75;3.58;;;;;;;2.77;95.33;96891.22;2089965;28;20033;-56
2024/02/21 00:05:02;;;;;;;7.97;3.47;;;;;;;2.77;95.09;96886.09;2089872;28;20041;-56
2024/02/21 00:06:03;;;;;;;11.35;3.75;;;;;;;2.78;95.18;96888.69;2089663;28;20492;-56
2024/02/21 00:07:05;;;;;;;13.48;3.28;;;;;;;2.78;95.25;96883.56;2089755;28;20061;-56
2024/02/21 00:08:06;;;;;;;9.95;3.45;;;;;;;2.79;94.96;96880.13;2090234;28;20041;-56
2024/02/21 00:09:09;;;;;;;10.88;3.60;;;;;;;2.82;95.16;96879.25;2089745;28;20040;-55
2024/02/21 00:10:10;;;;;;;13.27;3.90;;;;;;;2.83;95.15;96880.94;2089504;28;20048;-56
2024/02/21 00:11:11;;;;;;;10.13;3.35;;;;;;;2.83;95.70;96886.97;2090048;28;20072;-55
2024/02/21 00:12:13;;;;;;;6.30;3.15;;;;;;;2.83;95.62;96879.25;2089751;28;20041;-55
2024/02/21 00:13:14;;;;;;;11.20;3.45;;;;;;;2.87;95.20;96877.53;2090443;28;20060;-56
2024/02/21 00:14:16;;;;;;;9.13;3.10;;;;;;;2.87;95.05;96873.25;2091452;28;20032;-55
2024/02/21 00:15:17;;;;;;;9.88;3.40;;;;;;;2.91;95.20;96870.66;2091334;28;20040;-56
2024/02/21 00:16:18;;;;;;;9.77;3.75;;;;;;;2.93;94.97;96879.22;2091396;28;20040;-56
2024/02/21 00:17:19;;;;;;;10.93;3.47;;;;;;;2.92;94.99;96878.38;2091091;28;20052;-55
2024/02/21 00:18:20;;;;;;;11.60;3.53;;;;;;;2.94;94.82;96873.22;2091287;28;20053;-56
2024/02/21 00:19:21;;;;;;;9.93;3.53;;;;;;;2.96;94.67;96874.91;2090649;28;20081;-55
2024/02/21 00:20:22;;;;;;;9.20;3.72;;;;;;;2.96;94.83;96876.66;2090402;28;20436;-56
2024/02/21 00:21:23;;;;;;;16.17;4.28;;;;;;;2.99;94.86;96869.78;2091241;28;20041;-55
2024/02/21 00:22:28;;;;;;;11.63;3.70;;;;;;;3.01;94.62;96872.34;2091239;28;20045;-54
2024/02/21 00:23:29;;;;;;;8.73;3.00;;;;;;;3.01;94.91;96870.63;2091187;28;20052;-56
2024/02/21 00:24:30;;;;;;;12.68;3.88;;;;;;;3.04;94.64;96869.78;2091276;28;20057;-55
2024/02/21 00:25:31;;;;;;;11.60;3.35;;;;;;;3.04;93.75;96859.50;2091574;28;20041;-56
2024/02/21 00:26:32;;;;;;;9.52;3.28;;;;;;;3.07;92.34;96867.19;2091140;28;20444;-55
2024/02/21 00:27:33;;;;;;;11.82;3.42;;;;;;;3.09;92.94;96868.03;2091349;28;20029;-55
2024/02/21 00:28:34;;;;;;;10.32;3.05;;;;;;;3.11;92.73;96862.91;2091501;28;20037;-55
2024/02/21 00:29:35;;;;;;;8.57;2.97;;;;;;;3.11;92.17;96857.78;2091298;28;20057;-55
2024/02/21 00:30:38;;;;;;;11.18;2.85;;;;;;;3.13;92.24;96859.47;2090303;28;20056;-55
2024/02/21 00:31:39;;;;;;;8.98;3.30;;;;;;;3.13;91.74;96859.47;2091317;28;20053;-56
2024/02/21 00:32:40;;;;;;;8.63;3.42;;;;;;;3.14;92.29;96857.75;2091771;28;20068;-55
2024/02/21 00:33:41;;;;;;;7.43;2.78;;;;;;;3.14;92.10;96856.03;2091125;28;20059;-56
2024/02/21 00:34:43;;;;;;;10.85;3.13;;;;;;;3.14;92.03;96862.91;2090648;28;20420;-56
2024/02/21 00:35:44;;;;;;;7.25;2.85;;;;;;;3.12;92.57;96860.31;2091200;28;20045;-56
2024/02/21 00:36:45;;;;;;;15.68;3.60;;;;;;;3.13;92.54;96862.06;2091229;28;20052;-56
2024/02/21 00:37:46;;;;;;;10.90;3.45;;;;;;;3.14;92.42;96868.03;2091181;28;20045;-56
2024/02/21 00:38:47;;;;;;;11.68;4.10;;;;;;;3.12;92.54;96862.03;2090809;28;20056;-55
2024/02/21 00:39:48;;;;;;;14.35;3.72;;;;;;;3.12;92.72;96865.47;2091154;28;20041;-56
2024/02/21 00:40:50;;;;;;;10.15;3.70;;;;;;;3.11;92.86;96857.78;2090857;28;20048;-56
2024/02/21 00:41:51;;;;;;;9.93;3.60;;;;;;;3.08;92.84;96859.50;2091027;28;20504;-56
2024/02/21 00:42:52;;;;;;;12.88;3.60;;;;;;;3.08;93.05;96861.22;2091166;28;20068;-56
2024/02/21 00:43:53;;;;;;;9.30;4.10;;;;;;;3.08;92.78;96856.09;2091429;28;20033;-55
2024/02/21 00:44:54;;;;;;;12.23;3.50;;;;;;;3.10;92.86;96856.91;2091137;28;20040;-56
2024/02/21 00:45:56;;;;;;;13.77;3.97;;;;;;;3.09;93.09;96857.78;2091532;28;20485;-54
2024/02/21 00:46:57;;;;;;;12.93;3.78;;;;;;;3.10;92.84;96864.59;2091184;28;20052;-55
2024/02/21 00:47:58;;;;;;;11.90;3.50;;;;;;;3.09;92.86;96856.06;2091017;28;20048;-55
2024/02/21 00:48:59;;;;;;;10.90;3.40;;;;;;;3.08;92.77;96863.78;2091091;28;20055;-56
2024/02/21 00:50:00;;;;;;;10.80;2.90;;;;;;;3.08;92.97;96853.50;2090954;28;20041;-55
2024/02/21 00:51:01;;;;;;;12.82;3.05;;;;;;;3.12;93.03;96859.47;2091125;28;20040;-56
2024/02/21 00:52:03;;;;;;;14.48;4.20;;;;;;;3.08;93.39;96861.22;2091019;28;20041;-56
2024/02/21 00:53:04;;;;;;;8.65;3.47;;;;;;;3.08;93.22;96854.34;2090962;28;20036;-53
2024/02/21 00:54:06;;;;;;;10.73;3.20;;;;;;;3.09;93.21;96855.22;2091021;28;20048;-55
2024/02/21 00:55:07;;;;;;;9.32;3.78;;;;;;;3.11;93.26;96855.22;2091056;28;20052;-54
2024/02/21 00:56:09;;;;;;;12.95;3.65;;;;;;;3.08;93.58;96856.09;2090958;28;20037;-55
2024/02/21 00:57:10;;;;;;;10.13;3.00;;;;;;;3.09;93.33;96850.06;2090932;28;20037;-56
2024/02/21 00:58:11;;;;;;;14.57;4.00;;;;;;;3.05;93.68;96844.13;2090686;28;20053;-56
2024/02/21 00:59:12;;;;;;;10.73;3.30;;;;;;;3.06;93.77;96842.41;2091195;28;20037;-56
2024/02/21 01:00:14;;;;;;;12.18;3.75;;;;;;;3.07;93.99;96839.84;2090933;28;20049;-56
2024/02/21 01:01:22;;;;;;;9.98;3.42;;;;;;;3.07;93.96;96838.97;2090938;28;20056;-56
2024/02/21 01:02:23;;;;;;;12.82;3.67;;;;;;;3.06;93.64;96840.69;2090790;28;20417;-56
2024/02/21 01:03:24;;;;;;;12.23;3.58;;;;;;;3.01;93.88;96839.84;2090771;28;20057;-56
2024/02/21 01:04:26;;;;;;;9.48;3.92;;;;;;;3.00;94.41;96845.00;2091307;28;20049;-55
2024/02/21 01:05:29;;;;;;;8.43;2.83;;;;;;;3.01;94.19;96834.72;2091025;28;20049;-55
2024/02/21 01:06:30;;;;;;;11.90;3.80;;;;;;;3.02;94.25;96843.25;2091003;28;20060;-56
2024/02/21 01:07:31;;;;;;;8.82;2.85;;;;;;;3.02;94.63;96835.56;2090831;28;20480;-56
2024/02/21 01:08:32;;;;;;;7.80;3.53;;;;;;;3.05;94.39;96840.69;2090725;28;20045;-56
2024/02/21 01:09:33;;;;;;;14.50;2.95;;;;;;;3.04;94.27;96831.28;2090897;28;20040;-55
2024/02/21 01:10:34;;;;;;;11.13;3.75;;;;;;;3.03;94.71;96834.72;2090853;28;20044;-56
2024/02/21 01:11:35;;;;;;;9.55;3.55;;;;;;;3.03;94.64;96827.88;2091251;28;20045;-56
2024/02/21 01:12:36;;;;;;;9.55;3.63;;;;;;;3.05;94.40;96838.13;2090851;28;20519;-55
2024/02/21 01:13:38;;;;;;;7.85;3.42;;;;;;;3.04;94.63;96837.25;2091006;28;20044;-55
2024/02/21 01:14:39;;;;;;;10.35;3.45;;;;;;;3.06;94.46;96840.69;2090820;28;20044;-56
2024/02/21 01:15:40;;;;;;;11.85;3.38;;;;;;;3.07;94.43;96828.69;2090910;28;20044;-57
2024/02/21 01:16:41;;;;;;;10.05;3.60;;;;;;;3.09;94.61;96830.41;2090888;28;20044;-55
2024/02/21 01:17:42;;;;;;;11.73;3.42;;;;;;;3.11;94.09;96824.41;2090895;28;20064;-55
2024/02/21 01:18:43;;;;;;;9.18;3.53;;;;;;;3.12;94.07;96826.13;2091220;28;20056;-55
2024/02/21 01:20:05;;;;;;;8.10;3.00;;;;;;;3.12;94.38;96829.53;2090971;28;20392;-55
2024/02/21 01:21:26;;;;;;;10.50;3.42;;;;;;;3.12;94.59;96826.13;2090844;28;20048;-56
2024/02/21 01:22:47;;;;;;;10.68;3.15;;;;;;;3.12;94.47;96831.25;2090800;28;20044;-56
2024/02/21 01:24:08;;;;;;;7.28;2.80;;;;;;;3.12;94.29;96833.81;2090783;28;20063;-56
2024/02/21 01:25:29;;;;;;;6.63;3.10;;;;;;;3.11;94.42;96821.84;2090756;28;20032;-56
2024/02/21 01:26:50;;;;;;;10.70;3.15;;;;;;;3.09;94.99;96819.28;2090745;28;20040;-56
2024/02/21 01:28:11;;;;;;;9.05;3.30;;;;;;;3.10;94.93;96826.09;2090788;28;20048;-55
2024/02/21 01:29:31;;;;;;;10.05;3.20;;;;;;;3.11;94.53;96820.13;2090854;28;20040;-55
2024/02/21 01:30:52;;;;;;;7.53;2.58;;;;;;;3.12;94.49;96816.69;2089866;28;20045;-55
2024/02/21 01:32:13;;;;;;;7.10;2.90;;;;;;;3.15;94.12;96816.66;2090755;28;20044;-55
2024/02/21 01:33:34;;;;;;;7.13;2.67;;;;;;;3.18;94.38;96820.94;2090734;28;20048;-56
2024/02/21 01:34:55;;;;;;;7.18;2.63;;;;;;;3.16;94.04;96807.28;2090717;28;20063;-56
2024/02/21 01:36:16;;;;;;;10.55;3.05;;;;;;;3.18;94.09;96803.84;2090707;28;20044;-56
2024/02/21 01:37:37;;;;;;;9.95;3.47;;;;;;;3.19;93.72;96797.00;2090797;28;20048;-55
2024/02/21 01:38:58;;;;;;;9.00;3.00;;;;;;;3.21;94.08;96797.84;2090665;28;20037;-56
2024/02/21 01:40:19;;;;;;;7.00;2.40;;;;;;;3.18;93.51;96796.16;2090725;28;20041;-56
2024/02/21 01:41:40;;;;;;;3.15;1.80;;;;;;;3.19;93.34;96786.72;2090671;28;20516;-56
2024/02/21 01:43:01;;;;;;;9.80;3.10;;;;;;;3.19;93.32;96790.16;2090656;28;20081;-56
2024/02/21 01:44:22;;;;;;;8.52;2.80;;;;;;;3.19;93.25;96795.28;2090629;28;20041;-55
2024/02/21 01:45:44;;;;;;;9.88;3.08;;;;;;;3.17;93.39;96793.56;2090591;28;20067;-56
2024/02/21 01:47:05;;;;;;;9.27;3.13;;;;;;;3.16;93.66;96792.72;2090644;28;20401;-56
2024/02/21 01:48:26;;;;;;;9.10;2.55;;;;;;;3.15;93.90;96783.31;2089927;28;20052;-56
2024/02/21 01:49:47;;;;;;;6.93;2.58;;;;;;;3.14;93.96;96778.19;2090361;28;20041;-56
2024/02/21 01:51:08;;;;;;;7.55;2.80;;;;;;;3.13;94.17;96782.50;2090117;28;20036;-56
2024/02/21 01:52:29;;;;;;;10.98;3.17;;;;;;;3.12;94.18;96772.22;2090440;28;20400;-55
2024/02/21 01:53:51;;;;;;;6.95;3.00;;;;;;;3.13;94.04;96786.75;2090044;28;20520;-56
2024/02/21 01:55:13;;;;;;;6.40;2.85;;;;;;;3.13;94.17;96784.19;2090414;28;20471;-56
2024/02/21 01:56:34;;;;;;;10.23;3.33;;;;;;;3.12;94.32;96780.75;2089977;28;20040;-56
2024/02/21 01:57:55;;;;;;;8.32;2.63;;;;;;;3.14;94.44;96784.19;2087075;28;20044;-56
2024/02/21 01:59:16;;;;;;;4.90;2.55;;;;;;;3.12;94.67;96777.34;2087069;28;20045;-56
2024/02/21 02:00:37;;;;;;;7.88;2.80;;;;;;;3.07;95.15;96775.69;2090277;28;20460;-56
2024/02/21 02:01:58;;;;;;;8.05;3.00;;;;;;;3.02;95.69;96768.84;2089711;28;20036;-55
2024/02/21 02:03:19;;;;;;;8.85;2.70;;;;;;;3.01;95.97;96774.84;2090008;28;20056;-55
2024/02/21 02:04:40;;;;;;;7.90;3.33;;;;;;;2.98;96.30;96767.16;2090443;28;20393;-56
2024/02/21 02:06:01;;;;;;;7.72;3.03;;;;;;;2.94;96.41;96765.47;2089809;28;20508;-55
2024/02/21 02:07:22;;;;;;;7.93;2.72;;;;;;;2.90;96.83;96763.78;2090185;28;20044;-56
2024/02/21 02:08:43;;;;;;;12.00;3.00;;;;;;;2.88;97.33;96764.63;2090434;28;20044;-56
2024/02/21 02:10:05;;;;;;;8.45;3.10;;;;;;;2.86;97.50;96763.81;2090439;28;20048;-56
2024/02/21 02:11:26;;;;;;;9.05;3.63;;;;;;;2.84;97.15;96764.66;2090376;28;20040;-56
2024/02/21 02:12:46;;;;;;;7.20;3.80;;;;;;;2.82;97.76;96767.22;2090538;28;20044;-55
2024/02/21 02:14:07;;;;;;;7.68;2.70;;;;;;;2.78;97.69;96759.53;2090381;28;20507;-56
2024/02/21 02:15:38;;;;;;;10.25;3.60;;;;;;;2.75;97.98;96757.84;2090427;28;20048;-56
2024/02/21 02:16:59;;;;;;;7.88;2.55;;;;;;;2.70;98.62;96754.47;2090325;28;20397;-56
2024/02/21 02:18:20;;;;;;;10.23;2.90;;;;;;;2.67;98.69;96754.47;2090344;28;20041;-55
2024/02/21 02:19:41;;;;;;;7.10;2.38;;;;;;;2.62;99.36;96754.50;2090354;28;20041;-55
2024/02/21 02:21:04;;;;;;;9.85;3.47;;;;;;;2.61;99.68;96757.06;2090478;28;20037;-54
2024/02/21 02:22:28;;;;;;;7.72;2.72;;;;;;;2.58;99.86;96754.50;2090306;28;20045;-56
2024/02/21 02:23:49;;;;;;;7.78;2.92;;;;;;;2.52;100.00;96750.25;2090296;28;20067;-56
2024/02/21 02:25:10;;;;;;;7.68;2.78;;;;;;;2.51;100.00;96750.25;2089756;28;20045;-56
2024/02/21 02:26:31;;;;;;;11.85;3.65;;;;;;;2.50;100.00;96749.41;2090246;28;20481;-56
2024/02/21 02:27:53;;;;;;;10.40;3.28;;;;;;;2.48;100.00;96752.84;2090361;28;20041;-55
2024/02/21 02:29:14;;;;;;;8.02;2.70;;;;;;;2.43;100.00;96745.16;2090288;28;20045;-54
2024/02/21 02:30:38;;;;;;;11.13;3.50;;;;;;;2.40;100.00;96740.03;2089548;28;20040;-56
2024/02/21 02:31:59;;;;;;;9.32;3.15;;;;;;;2.36;100.00;96735.78;2090098;28;20037;-56
2024/02/21 02:33:20;;;;;;;5.50;1.67;;;;;;;2.34;100.00;96738.34;2090307;28;20053;-54
2024/02/21 02:34:41;;;;;;;8.07;2.38;;;;;;;2.34;100.00;96729.81;2090336;28;20493;-55
2024/02/21 02:36:02;;;;;;;7.70;2.65;;;;;;;2.34;100.00;96737.50;2089869;28;20041;-56
2024/02/21 02:37:22;;;;;;;10.40;3.22;;;;;;;2.31;100.00;96732.38;2090241;28;20043;-56
2024/02/21 02:38:43;;;;;;;9.90;2.63;;;;;;;2.29;100.00;96729.81;2090205;28;20036;-55
2024/02/21 02:40:06;;;;;;;12.05;3.60;;;;;;;2.27;100.00;96721.28;2090336;28;20040;-56
2024/02/21 02:41:27;;;;;;;6.57;3.13;;;;;;;2.28;100.00;96722.16;2089623;28;20429;-53
2024/02/21 02:42:49;;;;;;;7.75;2.65;;;;;;;2.25;100.00;96724.72;2090018;28;20045;-54
2024/02/21 02:44:10;;;;;;;7.32;2.60;;;;;;;2.24;100.00;96725.56;2090274;28;20535;-54
2024/02/21 02:45:31;;;;;;;7.13;2.15;;;;;;;2.23;100.00;96732.41;2090304;28;20041;-54
2024/02/21 02:46:52;;;;;;;5.70;2.22;;;;;;;2.26;100.00;96724.69;2090254;28;20033;-54
2024/02/21 02:48:13;;;;;;;4.70;1.85;;;;;;;2.26;100.00;96731.53;2090236;28;20516;-56
2024/02/21 02:49:34;;;;;;;7.70;2.80;;;;;;;2.28;100.00;96723.00;2090204;28;20440;-54
2024/02/21 02:50:55;;;;;;;5.97;2.58;;;;;;;2.22;100.00;96720.47;2090160;28;20040;-55
2024/02/21 02:52:17;;;;;;;7.78;2.67;;;;;;;2.26;100.00;96721.28;2090184;28;20041;-55
2024/02/21 02:53:38;;;;;;;7.25;3.15;;;;;;;2.21;100.00;96709.34;2090187;28;20040;-55
2024/02/21 02:55:01;;;;;;;4.45;2.30;;;;;;;2.18;100.00;96714.47;2090275;28;20045;-53
2024/02/21 02:56:22;;;;;;;10.48;2.75;;;;;;;2.16;100.00;96716.19;2090168;28;20041;-55
2024/02/21 02:57:43;;;;;;;8.73;3.40;;;;;;;2.15;100.00;96714.50;2090202;28;20043;-54
2024/02/21 02:59:04;;;;;;;7.30;2.60;;;;;;;2.15;100.00;96711.91;2090155;28;20041;-53
2024/02/21 03:00:25;;;;;;;7.13;2.78;;;;;;;2.13;100.00;96713.63;2090183;28;20067;-56
2024/02/21 03:01:46;;;;;;;8.73;2.75;;;;;;;2.14;100.00;96709.38;2090262;28;20481;-56
2024/02/21 03:03:08;;;;;;;9.65;3.00;;;;;;;2.15;100.00;96698.25;2091783;28;20489;-54
2024/02/21 03:04:27;;;;;;;8.02;3.00;;;;;;;2.12;100.00;96705.97;2092898;28;20429;-56
2024/02/21 03:05:47;;;;;;;9.23;2.85;;;;;;;2.12;100.00;96695.72;2090080;28;20517;-56
2024/02/21 03:07:07;;;;;;;8.13;2.90;;;;;;;2.12;100.00;96700.84;2093048;28;20044;-55
2024/02/21 03:08:26;;;;;;;6.20;2.75;;;;;;;2.12;100.00;96700.84;2092907;28;20046;-56
2024/02/21 03:09:46;;;;;;;7.05;3.13;;;;;;;2.12;100.00;96700.84;2090321;28;20033;-56
2024/02/21 03:11:05;;;;;;;6.13;2.78;;;;;;;2.11;100.00;96704.25;2092862;28;20049;-55
2024/02/21 03:12:27;;;;;;;8.10;2.97;;;;;;;2.10;100.00;96703.38;2090257;28;20044;-56
2024/02/21 03:13:47;;;;;;;8.02;3.00;;;;;;;2.10;100.00;96713.63;2090245;28;20045;-56
2024/02/21 03:15:06;;;;;;;8.70;2.90;;;;;;;2.10;100.00;96707.66;2090218;28;20041;-55
2024/02/21 03:16:26;;;;;;;6.35;2.63;;;;;;;2.12;100.00;96706.81;2092837;28;20044;-54
2024/02/21 03:17:46;;;;;;;5.60;2.60;;;;;;;2.11;100.00;96707.69;2090150;28;20037;-56
2024/02/21 03:19:05;;;;;;;9.68;3.00;;;;;;;2.12;100.00;96709.38;2092923;28;20053;-55
2024/02/21 03:20:24;;;;;;;6.82;2.88;;;;;;;2.15;100.00;96711.06;2090175;28;20048;-55
2024/02/21 03:21:44;;;;;;;9.13;3.25;;;;;;;2.14;100.00;96710.22;2092846;28;20049;-55
2024/02/21 03:23:00;;;;;;;7.70;3.33;;;;;;;2.14;100.00;96701.69;2093016;28;20041;-55
2024/02/21 03:24:20;;;;;;;5.60;2.33;;;;;;;2.13;100.00;96705.94;2092913;28;20041;-56
2024/02/21 03:25:40;;;;;;;8.93;3.30;;;;;;;2.13;100.00;96705.09;2093014;28;20041;-56
2024/02/21 03:26:59;;;;;;;9.77;2.97;;;;;;;2.14;100.00;96699.13;2092785;28;20045;-55
2024/02/21 03:28:19;;;;;;;11.23;2.95;;;;;;;2.15;100.00;96706.78;2090279;28;20041;-56
2024/02/21 03:29:38;;;;;;;6.63;2.97;;;;;;;2.17;100.00;96709.38;2092805;28;20091;-55
2024/02/21 03:30:57;;;;;;;5.85;3.03;;;;;;;2.15;100.00;96706.78;2089394;28;20040;-55
2024/02/21 03:32:17;;;;;;;9.50;3.30;;;;;;;2.18;100.00;96701.66;2089882;28;20041;-54
2024/02/21 03:33:37;;;;;;;9.57;3.10;;;;;;;2.19;100.00;96700.81;2090197;28;20052;-56
2024/02/21 03:34:56;;;;;;;4.05;2.33;;;;;;;2.21;100.00;96705.91;2092827;28;20048;-56
2024/02/21 03:36:16;;;;;;;9.30;3.28;;;;;;;2.22;100.00;96705.09;2090180;28;20045;-56
2024/02/21 03:37:35;;;;;;;8.77;2.60;;;;;;;2.23;100.00;96701.66;2092947;28;20049;-55
2024/02/21 03:38:55;;;;;;;5.82;2.47;;;;;;;2.23;100.00;96704.22;2092810;28;20049;-56
2024/02/21 03:40:15;;;;;;;9.68;3.35;;;;;;;2.25;100.00;96696.53;2090170;28;20053;-56
2024/02/21 03:41:35;;;;;;;8.25;3.08;;;;;;;2.24;100.00;96700.78;2092820;28;20049;-56
2024/02/21 03:42:54;;;;;;;10.43;3.95;;;;;;;2.29;100.00;96701.63;2092247;28;20049;-56
2024/02/21 03:44:14;;;;;;;7.63;3.08;;;;;;;2.28;100.00;96697.38;2089709;28;20045;-56
2024/02/21 03:45:33;;;;;;;8.85;2.90;;;;;;;2.28;100.00;96697.38;2093126;28;20412;-54
2024/02/21 03:46:53;;;;;;;8.88;3.65;;;;;;;2.28;100.00;96702.50;2090466;28;20041;-54
2024/02/21 03:48:12;;;;;;;8.52;3.50;;;;;;;2.31;100.00;96702.47;2093862;28;20049;-54
2024/02/21 03:49:31;;;;;;;8.23;2.55;;;;;;;2.27;100.00;96695.66;2094860;28;20049;-54
2024/02/21 03:50:51;;;;;;;6.30;2.70;;;;;;;2.28;100.00;96699.94;2091572;28;20045;-55
2024/02/21 03:52:08;;;;;;;8.63;3.05;;;;;;;2.30;100.00;96698.22;2091830;28;20041;-56
2024/02/21 03:53:28;;;;;;;8.70;3.63;;;;;;;2.33;100.00;96697.34;2094379;28;20085;-56
2024/02/21 03:54:48;;;;;;;6.78;2.95;;;;;;;2.36;100.00;96697.34;2094497;28;20045;-56
2024/02/21 03:56:04;;;;;;;8.38;2.63;;;;;;;2.31;100.00;96691.38;2091631;28;20049;-56
2024/02/21 03:57:24;;;;;;;6.82;2.72;;;;;;;2.34;100.00;96697.34;2091543;28;20373;-56
2024/02/21 03:58:43;;;;;;;7.53;2.90;;;;;;;2.37;100.00;96705.00;2091583;28;20049;-56
2024/02/21 04:00:03;;;;;;;6.13;2.85;;;;;;;2.39;100.00;96705.00;2094373;28;20033;-55
2024/02/21 04:01:24;;;;;;;9.68;3.05;;;;;;;2.38;100.00;96704.16;2091599;28;20408;-56
2024/02/21 04:02:43;;;;;;;12.02;3.28;;;;;;;2.39;100.00;96700.72;2091704;28;20037;-55
2024/02/21 04:04:03;;;;;;;7.35;3.22;;;;;;;2.38;100.00;96698.19;2094147;28;20049;-56
2024/02/21 04:05:22;;;;;;;9.32;3.97;;;;;;;2.41;100.00;96698.19;2094222;28;20036;-56
2024/02/21 04:06:48;;;;;;;8.82;2.65;;;;;;;2.42;100.00;96690.47;2094200;28;20044;-56
2024/02/21 04:08:08;;;;;;;8.50;2.70;;;;;;;2.43;100.00;96691.31;2094246;28;20037;-56
2024/02/21 04:09:28;;;;;;;5.93;2.42;;;;;;;2.38;100.00;96693.06;2091724;28;20049;-56
2024/02/21 04:10:47;;;;;;;8.68;2.95;;;;;;;2.39;100.00;96690.47;2094236;28;20049;-55
2024/02/21 04:12:08;;;;;;;6.18;3.03;;;;;;;2.40;100.00;96684.47;2094241;28;20053;-56
2024/02/21 04:13:27;;;;;;;6.13;2.58;;;;;;;2.37;100.00;96681.94;2094262;28;20049;-55
2024/02/21 04:14:47;;;;;;;6.40;2.83;;;;;;;2.40;100.00;96686.19;2091357;28;20045;-53
2024/02/21 04:16:06;;;;;;;6.20;2.72;;;;;;;2.38;100.00;96681.09;2091456;28;20049;-56
2024/02/21 04:17:26;;;;;;;7.43;3.35;;;;;;;2.40;100.00;96681.91;2094217;28;20049;-55
2024/02/21 04:18:45;;;;;;;6.20;2.70;;;;;;;2.39;100.00;96680.22;2091424;28;20053;-55
2024/02/21 04:20:05;;;;;;;5.97;2.60;;;;;;;2.37;100.00;96675.97;2094165;28;20048;-55
2024/02/21 04:21:25;;;;;;;10.75;2.50;;;;;;;2.36;100.00;96672.56;2094153;28;20037;-55
2024/02/21 04:22:45;;;;;;;8.18;2.80;;;;;;;2.34;100.00;96670.84;2094107;28;20048;-56
2024/02/21 04:24:05;;;;;;;9.50;3.05;;;;;;;2.32;100.00;96670.84;2094038;28;20045;-55
2024/02/21 04:25:24;;;;;;;6.28;2.20;;;;;;;2.31;100.00;96663.19;2091308;28;20041;-56
2024/02/21 04:26:44;;;;;;;9.23;3.20;;;;;;;2.31;100.00;96655.50;2094158;28;20044;-55
2024/02/21 04:28:04;;;;;;;11.85;2.92;;;;;;;2.27;100.00;96657.19;2091383;28;20041;-56
2024/02/21 04:29:24;;;;;;;6.32;2.40;;;;;;;2.26;100.00;96654.66;2094200;28;20045;-55
2024/02/21 04:30:43;;;;;;;9.13;3.17;;;;;;;2.24;100.00;96653.81;2090455;28;20045;-56
2024/02/21 04:32:04;;;;;;;5.82;2.50;;;;;;;2.24;100.00;96648.69;2093433;28;20037;-52
2024/02/21 04:33:24;;;;;;;9.23;2.80;;;;;;;2.24;100.00;96648.69;2091333;28;20049;-54
2024/02/21 04:34:44;;;;;;;5.68;2.08;;;;;;;2.18;100.00;96637.59;2091470;28;20036;-56
2024/02/21 04:36:03;;;;;;;19.45;3.03;;;;;;;2.17;100.00;96641.03;2094082;28;20044;-57
2024/02/21 04:37:24;;;;;;;6.65;2.22;;;;;;;2.16;100.00;96643.59;2091268;28;20497;-55
2024/02/21 04:38:45;;;;;;;4.90;1.90;;;;;;;2.19;100.00;96641.00;2094069;28;20041;-54
2024/02/21 04:40:05;;;;;;;6.55;1.65;;;;;;;2.14;100.00;96640.19;2094198;28;20040;-55
2024/02/21 04:41:25;;;;;;;5.13;2.35;;;;;;;2.15;100.00;96642.72;2093926;28;20041;-55
2024/02/21 04:42:44;;;;;;;5.20;2.10;;;;;;;2.14;100.00;96635.91;2094145;28;20049;-55
2024/02/21 04:44:04;;;;;;;7.47;2.45;;;;;;;2.15;100.00;96640.19;2091164;28;20045;-56
2024/02/21 04:45:23;;;;;;;6.00;2.65;;;;;;;2.11;100.00;96638.50;2091230;28;20465;-55
2024/02/21 04:46:43;;;;;;;8.50;2.60;;;;;;;2.11;100.00;96633.38;2091147;28;20401;-55
2024/02/21 04:48:02;;;;;;;9.93;2.97;;;;;;;2.07;100.00;96621.41;2091203;28;20032;-55
2024/02/21 04:49:22;;;;;;;7.90;2.55;;;;;;;2.06;100.00;96627.41;2093906;28;20044;-55
2024/02/21 04:50:41;;;;;;;6.22;2.78;;;;;;;2.03;100.00;96629.97;2093930;28;20481;-56
2024/02/21 04:52:01;;;;;;;7.18;2.47;;;;;;;2.01;100.00;96625.72;2091126;28;20044;-56
2024/02/21 04:53:20;;;;;;;7.57;2.63;;;;;;;1.99;100.00;96625.72;2093789;28;20032;-56
2024/02/21 04:54:40;;;;;;;5.72;2.35;;;;;;;1.94;100.00;96618.03;2090730;28;20045;-55
2024/02/21 04:55:59;;;;;;;9.18;2.50;;;;;;;1.94;100.00;96614.63;2090843;28;20485;-56
2024/02/21 04:57:19;;;;;;;6.35;2.65;;;;;;;1.94;100.00;96607.78;2090687;28;20049;-56
2024/02/21 04:58:39;;;;;;;11.63;3.55;;;;;;;1.89;100.00;96601.84;2093593;28;20405;-56
2024/02/21 04:59:58;;;;;;;7.93;2.60;;;;;;;1.88;100.00;96602.72;2093712;28;20484;-55
2024/02/21 05:01:18;;;;;;;9.60;3.38;;;;;;;1.86;100.00;96606.13;2091019;28;20041;-56
2024/02/21 05:02:37;;;;;;;6.28;2.55;;;;;;;1.86;100.00;96603.56;2091680;28;20045;-56
2024/02/21 05:03:57;;;;;;;9.90;2.78;;;;;;;1.87;100.00;96607.81;2093874;28;20496;-53
2024/02/21 05:05:16;;;;;;;7.35;2.40;;;;;;;1.84;100.00;96606.13;2091133;28;20089;-53
2024/02/21 05:06:39;;;;;;;7.80;2.35;;;;;;;1.87;100.00;96602.69;2091206;28;20428;-56
2024/02/21 05:07:59;;;;;;;4.68;1.77;;;;;;;1.85;100.00;96610.41;2091067;28;20037;-54
2024/02/21 05:09:19;;;;;;;5.20;2.58;;;;;;;1.85;100.00;96600.16;2091906;28;20044;-56
2024/02/21 05:10:39;;;;;;;5.07;2.22;;;;;;;1.89;100.00;96595.88;2090935;28;20040;-55
2024/02/21 05:12:01;;;;;;;5.60;2.00;;;;;;;1.87;100.00;96598.44;2093780;28;20045;-56
2024/02/21 05:13:21;;;;;;;6.03;2.28;;;;;;;1.91;100.00;96595.00;2093709;28;20481;-56
2024/02/21 05:14:40;;;;;;;7.55;2.50;;;;;;;1.92;100.00;96595.84;2091121;28;20041;-52
2024/02/21 05:16:01;;;;;;;5.70;2.20;;;;;;;1.91;100.00;96594.16;2093899;28;20049;-55
2024/02/21 05:17:21;;;;;;;6.50;2.55;;;;;;;1.91;100.00;96589.88;2093900;28;20493;-53
2024/02/21 05:18:42;;;;;;;8.00;2.22;;;;;;;1.91;100.00;96589.88;2093733;28;20485;-53
2024/02/21 05:20:02;;;;;;;3.15;1.70;;;;;;;1.92;100.00;96585.59;2093896;28;20041;-54
2024/02/21 05:21:21;;;;;;;7.15;2.28;;;;;;;1.93;100.00;96588.19;2093589;28;20045;-54
2024/02/21 05:22:40;;;;;;;6.97;2.20;;;;;;;1.91;100.00;96577.06;2091027;28;20401;-54
2024/02/21 05:24:00;;;;;;;5.60;2.78;;;;;;;1.90;100.00;96575.38;2091003;28;20045;-55
2024/02/21 05:25:20;;;;;;;4.28;2.42;;;;;;;1.91;100.00;96568.53;2093716;28;20032;-54
2024/02/21 05:26:39;;;;;;;6.03;1.25;;;;;;;1.89;100.00;96565.13;2091040;28;20053;-54
2024/02/21 05:28:01;;;;;;;5.38;2.55;;;;;;;1.90;100.00;96562.56;2092842;28;20037;-53
2024/02/21 05:29:21;;;;;;;6.15;2.10;;;;;;;1.92;100.00;96558.28;2093574;28;20481;-52
2024/02/21 05:30:41;;;;;;;4.75;1.88;;;;;;;1.93;100.00;96554.88;2093675;28;20428;-54
2024/02/21 05:32:02;;;;;;;5.53;1.95;;;;;;;1.95;100.00;96560.84;2093071;28;20037;-56
2024/02/21 05:33:21;;;;;;;6.15;2.35;;;;;;;1.94;100.00;96560.84;2090989;28;20048;-54
2024/02/21 05:34:41;;;;;;;7.25;2.08;;;;;;;1.95;100.00;96560.84;2090795;28;20044;-54
2024/02/21 05:36:00;;;;;;;4.60;1.70;;;;;;;1.98;100.00;96560.84;2093645;28;20036;-54
2024/02/21 05:37:19;;;;;;;5.93;2.38;;;;;;;2.03;100.00;96562.50;2093629;28;20041;-56
2024/02/21 05:38:39;;;;;;;4.35;2.17;;;;;;;2.05;100.00;96560.78;2093515;28;20044;-62
2024/02/21 05:39:58;;;;;;;5.63;1.60;;;;;;;2.08;100.00;96555.66;2093546;28;20041;-57
2024/02/21 05:41:18;;;;;;;8.88;2.75;;;;;;;2.10;100.00;96544.53;2090792;28;20045;-53
2024/02/21 05:42:37;;;;;;;5.53;2.30;;;;;;;2.11;100.00;96548.81;2093654;28;20048;-54
2024/02/21 05:43:57;;;;;;;4.30;1.98;;;;;;;2.13;100.00;96548.78;2093551;28;20048;-56
2024/02/21 05:45:17;;;;;;;3.70;1.80;;;;;;;2.15;100.00;96547.94;2093536;28;20045;-56
2024/02/21 05:46:36;;;;;;;3.17;1.65;;;;;;;2.15;100.00;96544.53;2090959;28;20041;-57
2024/02/21 05:47:57;;;;;;;4.20;1.55;;;;;;;2.14;100.00;96538.56;2090674;28;20048;-56
2024/02/21 05:49:16;;;;;;;5.47;1.95;;;;;;;2.16;100.00;96529.13;2093798;28;20048;-54
2024/02/21 05:50:36;;;;;;;10.02;2.42;;;;;;;2.12;100.00;96532.56;2091270;28;20045;-54
2024/02/21 05:51:56;;;;;;;4.40;1.65;;;;;;;2.14;100.00;96530.03;2090887;28;20045;-55
2024/02/21 05:53:15;;;;;;;4.88;2.20;;;;;;;2.13;100.00;96531.69;2090822;28;20492;-55
2024/02/21 05:54:37;;;;;;;5.95;2.15;;;;;;;2.12;100.00;96532.56;2093055;28;20044;-54